Time;durP1;ratioP1;P1;durP2;ratioP2;P2;SDS_P1;SDS_P2;PMS_P1;PMS_P2;Temp;Humidity;BMP_temperature;BMP_pressure;BME280_temperature;BME280_humidity;BME280_pressure;Samples;Min_cycle;Max_cycle;Signal;HPM_P1;HPM_P2
2023/09/02 00:02:19;;;;;;;259.97;158.80;;;;;;;;;;5073668;28;20427;-46
2023/09/02 00:04:45;;;;;;;254.97;152.67;;;;;;;;;;5073679;28;20428;-46
2023/09/02 00:07:11;;;;;;;257.27;154.70;;;;;;;;;;5073719;28;20746;-46
2023/09/02 00:09:37;;;;;;;257.53;158.53;;;;;;;;;;5072587;28;20775;-47
2023/09/02 00:12:03;;;;;;;255.27;153.33;;;;;;;;;;5073545;28;20411;-46
2023/09/02 00:14:29;;;;;;;258.40;159.43;;;;;;;;;;5073417;28;20506;-47
2023/09/02 00:16:55;;;;;;;254.70;148.50;;;;;;;;;;5073419;28;20962;-46
2023/09/02 00:19:21;;;;;;;258.17;154.17;;;;;;;;;;5073282;28;20552;-47
2023/09/02 00:21:47;;;;;;;257.93;159.37;;;;;;;;;;5073327;28;20412;-46
2023/09/02 00:24:13;;;;;;;255.50;150.27;;;;;;;;;;5073289;28;20933;-46
2023/09/02 00:26:39;;;;;;;253.97;149.77;;;;;;;;;;5073477;28;20403;-46
2023/09/02 00:29:05;;;;;;;253.40;148.30;;;;;;;;;;5073316;28;20436;-46
2023/09/02 00:31:33;;;;;;;259.33;158.93;;;;;;;;;;5073021;28;20420;-46
2023/09/02 00:33:59;;;;;;;258.30;156.83;;;;;;;;;;5073113;28;20443;-45
2023/09/02 00:36:27;;;;;;;261.07;162.60;;;;;;;;;;5072940;28;20606;-46
2023/09/02 00:38:53;;;;;;;255.93;155.87;;;;;;;;;;5073019;28;20485;-45
2023/09/02 00:41:31;;;;;;;258.37;159.30;;;;;;;;;;5072758;28;20495;-46
2023/09/02 00:43:58;;;;;;;258.37;157.13;;;;;;;;;;5072994;28;20843;-46
2023/09/02 00:46:24;;;;;;;262.37;165.77;;;;;;;;;;5072825;28;20498;-46
2023/09/02 00:48:50;;;;;;;255.83;153.50;;;;;;;;;;5072977;28;20400;-46
2023/09/02 00:51:16;;;;;;;257.17;153.00;;;;;;;;;;5072372;28;20441;-46
2023/09/02 00:53:44;;;;;;;264.97;168.20;;;;;;;;;;5072888;28;20523;-46
2023/09/02 00:56:10;;;;;;;263.80;165.43;;;;;;;;;;5072723;28;20439;-46
2023/09/02 00:58:36;;;;;;;264.13;163.60;;;;;;;;;;5072565;28;20518;-46
2023/09/02 01:01:03;;;;;;;267.43;162.50;;;;;;;;;;5072057;28;20771;-45
2023/09/02 01:03:29;;;;;;;257.63;153.73;;;;;;;;;;5071887;28;20428;-46
2023/09/02 01:05:55;;;;;;;263.50;162.80;;;;;;;;;;5072062;28;20473;-47
2023/09/02 01:08:21;;;;;;;258.43;158.47;;;;;;;;;;5072464;28;20407;-46
2023/09/02 01:10:48;;;;;;;256.20;153.97;;;;;;;;;;5072316;28;20827;-46
2023/09/02 01:13:14;;;;;;;257.03;156.63;;;;;;;;;;5072259;28;20461;-46
2023/09/02 01:15:40;;;;;;;260.27;161.70;;;;;;;;;;5072222;28;20419;-46
2023/09/02 01:18:06;;;;;;;261.87;158.70;;;;;;;;;;5072381;28;20412;-47
2023/09/02 01:20:38;;;;;;;258.00;156.00;;;;;;;;;;5070174;28;21770;-46
2023/09/02 01:23:26;;;;;;;258.97;160.90;;;;;;;;;;5077339;28;20422;-46
2023/09/02 01:26:00;;;;;;;261.20;161.80;;;;;;;;;;5065582;28;20423;-45
2023/09/02 01:28:28;;;;;;;258.10;158.30;;;;;;;;;;5072067;28;20409;-46
2023/09/02 01:30:55;;;;;;;264.40;164.13;;;;;;;;;;5071372;28;20968;-46
2023/09/02 01:33:21;;;;;;;258.13;157.67;;;;;;;;;;5071426;28;20449;-46
2023/09/02 01:35:49;;;;;;;263.03;165.67;;;;;;;;;;5072302;28;20457;-46
2023/09/02 01:38:15;;;;;;;258.07;157.13;;;;;;;;;;5072113;28;20403;-46
2023/09/02 01:40:42;;;;;;;265.60;167.60;;;;;;;;;;5072025;28;20544;-46
2023/09/02 01:43:08;;;;;;;259.43;159.67;;;;;;;;;;5071966;28;20422;-45
2023/09/02 01:45:35;;;;;;;259.77;159.43;;;;;;;;;;5072169;28;20411;-46
2023/09/02 01:48:01;;;;;;;257.53;159.20;;;;;;;;;;5072236;28;20400;-45
2023/09/02 01:50:31;;;;;;;260.63;161.63;;;;;;;;;;5071676;28;20455;-46
2023/09/02 01:52:58;;;;;;;254.70;152.43;;;;;;;;;;5072077;28;20430;-45
2023/09/02 01:55:24;;;;;;;256.63;158.23;;;;;;;;;;5071841;28;20430;-45
2023/09/02 01:57:50;;;;;;;257.20;156.97;;;;;;;;;;5071764;28;20418;-45
2023/09/02 02:00:16;;;;;;;257.37;159.63;;;;;;;;;;5071761;28;20876;-46
2023/09/02 02:02:42;;;;;;;260.27;162.27;;;;;;;;;;5071808;28;20491;-45
2023/09/02 02:05:13;;;;;;;259.13;161.03;;;;;;;;;;5071858;28;20974;-45
2023/09/02 02:07:41;;;;;;;259.63;161.50;;;;;;;;;;5072296;28;20466;-46
2023/09/02 02:10:08;;;;;;;260.37;163.50;;;;;;;;;;5071621;28;20400;-46
2023/09/02 02:12:34;;;;;;;261.13;160.67;;;;;;;;;;5071471;28;20897;-45
2023/09/02 02:15:00;;;;;;;258.70;158.03;;;;;;;;;;5071750;28;20440;-45
2023/09/02 02:17:28;;;;;;;261.07;162.43;;;;;;;;;;5071795;28;20448;-46
2023/09/02 02:19:54;;;;;;;263.70;160.40;;;;;;;;;;5071415;28;20804;-46
2023/09/02 02:22:20;;;;;;;261.07;165.43;;;;;;;;;;5071726;28;20444;-45
2023/09/02 02:24:46;;;;;;;260.17;161.40;;;;;;;;;;5071500;28;20414;-46
2023/09/02 02:27:13;;;;;;;260.43;160.33;;;;;;;;;;5071826;28;20406;-46
2023/09/02 02:29:39;;;;;;;260.07;162.13;;;;;;;;;;5071392;28;20406;-47
2023/09/02 02:32:05;;;;;;;256.07;153.20;;;;;;;;;;5073785;28;20400;-46
2023/09/02 02:34:31;;;;;;;253.63;151.83;;;;;;;;;;5075614;28;20527;-46
2023/09/02 02:36:57;;;;;;;259.93;161.07;;;;;;;;;;5075736;28;20451;-46
2023/09/02 02:39:23;;;;;;;258.20;155.63;;;;;;;;;;5075449;28;20513;-46
2023/09/02 02:41:49;;;;;;;261.17;162.27;;;;;;;;;;5075329;28;20406;-46
2023/09/02 02:44:15;;;;;;;255.37;153.53;;;;;;;;;;5075407;28;20450;-45
2023/09/02 02:46:41;;;;;;;257.87;158.93;;;;;;;;;;5076050;28;20407;-46
2023/09/02 02:49:07;;;;;;;257.03;156.63;;;;;;;;;;5075856;28;20403;-46
2023/09/02 02:51:33;;;;;;;257.13;156.30;;;;;;;;;;5075009;28;20473;-46
2023/09/02 02:53:59;;;;;;;254.87;155.97;;;;;;;;;;5075185;28;20511;-46
2023/09/02 02:56:25;;;;;;;259.60;161.50;;;;;;;;;;5075188;28;20411;-46
2023/09/02 02:58:51;;;;;;;257.63;157.00;;;;;;;;;;5075211;28;20460;-45
2023/09/02 03:01:17;;;;;;;261.47;166.90;;;;;;;;;;5075022;28;20478;-46
2023/09/02 03:03:43;;;;;;;260.30;160.37;;;;;;;;;;5074991;28;20491;-46
2023/09/02 03:06:09;;;;;;;255.03;154.27;;;;;;;;;;5075211;28;20553;-46
2023/09/02 03:08:36;;;;;;;259.93;164.83;;;;;;;;;;5075018;28;20403;-46
2023/09/02 03:11:07;;;;;;;257.30;156.67;;;;;;;;;;5074780;28;20775;-46
2023/09/02 03:13:33;;;;;;;263.43;163.90;;;;;;;;;;5074903;28;21009;-46
2023/09/02 03:16:00;;;;;;;258.07;159.30;;;;;;;;;;5074993;28;20399;-45
2023/09/02 03:18:26;;;;;;;260.23;163.87;;;;;;;;;;5074824;28;20911;-45
2023/09/02 03:20:52;;;;;;;259.30;165.40;;;;;;;;;;5075064;28;20502;-46
2023/09/02 03:23:19;;;;;;;263.97;168.50;;;;;;;;;;5074885;28;20496;-46
2023/09/02 03:25:45;;;;;;;260.87;167.93;;;;;;;;;;5074656;28;20495;-46
2023/09/02 03:28:12;;;;;;;255.37;160.13;;;;;;;;;;5074755;28;20829;-46
2023/09/02 03:30:38;;;;;;;259.27;162.97;;;;;;;;;;5074432;28;20408;-46
2023/09/02 03:33:04;;;;;;;260.70;164.30;;;;;;;;;;5074650;28;20985;-46
2023/09/02 03:35:30;;;;;;;261.97;165.93;;;;;;;;;;5074435;28;20941;-45
2023/09/02 03:37:56;;;;;;;265.87;170.23;;;;;;;;;;5074381;28;20490;-45
2023/09/02 03:40:22;;;;;;;269.63;173.13;;;;;;;;;;5074144;28;20469;-46
2023/09/02 03:42:48;;;;;;;262.30;165.33;;;;;;;;;;5073264;28;20431;-46
2023/09/02 03:45:14;;;;;;;266.40;173.33;;;;;;;;;;5074444;28;20413;-46
2023/09/02 03:47:40;;;;;;;263.97;165.93;;;;;;;;;;5074346;28;20485;-46
2023/09/02 03:50:06;;;;;;;264.30;166.57;;;;;;;;;;5074078;28;20407;-46
2023/09/02 03:52:32;;;;;;;272.67;178.10;;;;;;;;;;5086102;28;20462;-46
2023/09/02 03:54:59;;;;;;;267.37;172.53;;;;;;;;;;5094235;28;20972;-45
2023/09/02 03:57:25;;;;;;;270.27;182.53;;;;;;;;;;5094593;28;20405;-45
2023/09/02 03:59:51;;;;;;;276.50;184.20;;;;;;;;;;5094049;28;20455;-45
2023/09/02 04:02:17;;;;;;;267.97;172.30;;;;;;;;;;5094423;28;20397;-47
2023/09/02 04:04:43;;;;;;;262.43;163.27;;;;;;;;;;5094182;28;20947;-46
2023/09/02 04:07:09;;;;;;;267.13;169.00;;;;;;;;;;5094068;28;20408;-46
2023/09/02 04:09:35;;;;;;;270.27;174.93;;;;;;;;;;5094215;28;20403;-46
2023/09/02 04:12:01;;;;;;;268.03;169.30;;;;;;;;;;5094814;28;20932;-46
2023/09/02 04:14:27;;;;;;;264.77;167.30;;;;;;;;;;5094040;28;20516;-46
2023/09/02 04:16:54;;;;;;;268.47;172.03;;;;;;;;;;5093992;28;20401;-46
2023/09/02 04:19:20;;;;;;;264.93;167.80;;;;;;;;;;5093857;28;20456;-46
2023/09/02 04:21:49;;;;;;;267.43;172.77;;;;;;;;;;5093689;28;20399;-46
2023/09/02 04:24:15;;;;;;;265.37;169.77;;;;;;;;;;5093764;28;20424;-47
2023/09/02 04:26:41;;;;;;;265.40;168.70;;;;;;;;;;5094020;28;20408;-46
2023/09/02 04:29:07;;;;;;;264.83;168.27;;;;;;;;;;5085758;28;20449;-46
2023/09/02 04:31:33;;;;;;;265.67;169.37;;;;;;;;;;5072870;28;20790;-45
2023/09/02 04:33:59;;;;;;;271.87;184.00;;;;;;;;;;5073114;28;20428;-46
2023/09/02 04:36:25;;;;;;;270.27;176.13;;;;;;;;;;5077950;28;20417;-45
2023/09/02 04:38:51;;;;;;;268.50;174.03;;;;;;;;;;5072942;28;20465;-46
2023/09/02 04:41:17;;;;;;;264.97;169.27;;;;;;;;;;5072966;28;20514;-46
2023/09/02 04:43:43;;;;;;;273.17;189.73;;;;;;;;;;5072910;28;20438;-46
2023/09/02 04:46:09;;;;;;;257.90;158.13;;;;;;;;;;5073007;28;20769;-46
2023/09/02 04:48:35;;;;;;;254.23;151.27;;;;;;;;;;5072718;28;20914;-46
2023/09/02 04:51:03;;;;;;;249.43;144.03;;;;;;;;;;5072647;28;20507;-46
2023/09/02 04:53:29;;;;;;;245.83;129.83;;;;;;;;;;5072637;28;20430;-45
2023/09/02 04:55:55;;;;;;;242.77;124.30;;;;;;;;;;5072493;28;20905;-45
2023/09/02 04:58:23;;;;;;;241.23;121.83;;;;;;;;;;5072637;28;20444;-46
2023/09/02 05:00:49;;;;;;;239.63;118.60;;;;;;;;;;5072939;28;20503;-46
2023/09/02 05:03:15;;;;;;;238.10;112.87;;;;;;;;;;5072394;28;20530;-45
2023/09/02 05:05:41;;;;;;;236.97;111.47;;;;;;;;;;5072558;28;20780;-45
2023/09/02 05:08:07;;;;;;;235.47;108.13;;;;;;;;;;5072828;28;20832;-46
2023/09/02 05:10:33;;;;;;;235.93;110.97;;;;;;;;;;5072455;28;20404;-46
2023/09/02 05:12:59;;;;;;;234.17;107.97;;;;;;;;;;5072384;28;20432;-46
2023/09/02 05:15:25;;;;;;;229.77;100.03;;;;;;;;;;5072292;28;20984;-46
2023/09/02 05:17:51;;;;;;;230.07;98.07;;;;;;;;;;5072297;28;20944;-46
2023/09/02 05:20:17;;;;;;;227.27;96.53;;;;;;;;;;5071978;28;20486;-46
2023/09/02 05:22:44;;;;;;;227.33;92.57;;;;;;;;;;5072272;28;20408;-46
2023/09/02 05:25:10;;;;;;;224.83;90.57;;;;;;;;;;5079534;28;20408;-46
2023/09/02 05:27:38;;;;;;;225.80;91.37;;;;;;;;;;5072094;28;20397;-46
2023/09/02 05:30:05;;;;;;;223.47;89.07;;;;;;;;;;5072033;28;20498;-47
2023/09/02 05:32:31;;;;;;;224.90;87.57;;;;;;;;;;5071857;28;20420;-46
2023/09/02 05:34:56;;;;;;;222.37;86.30;;;;;;;;;;5072005;28;20447;-46
2023/09/02 05:37:23;;;;;;;224.53;87.23;;;;;;;;;;5071944;28;20427;-46
2023/09/02 05:39:49;;;;;;;230.27;91.03;;;;;;;;;;5071796;28;20974;-46
2023/09/02 05:42:15;;;;;;;222.63;85.43;;;;;;;;;;5072303;28;20403;-46
2023/09/02 05:44:41;;;;;;;222.17;86.20;;;;;;;;;;5072015;28;20467;-46
2023/09/02 05:47:07;;;;;;;225.00;88.67;;;;;;;;;;5072135;28;20397;-46
2023/09/02 05:49:37;;;;;;;225.80;90.80;;;;;;;;;;5072015;28;20845;-46
2023/09/02 05:52:04;;;;;;;225.10;88.60;;;;;;;;;;5071610;28;20446;-46
2023/09/02 05:54:30;;;;;;;224.40;89.77;;;;;;;;;;5071875;28;20521;-46
2023/09/02 05:56:56;;;;;;;224.93;90.03;;;;;;;;;;5071939;28;20500;-46
2023/09/02 05:59:22;;;;;;;224.03;88.57;;;;;;;;;;5071901;28;20456;-46
2023/09/02 06:01:49;;;;;;;227.90;93.67;;;;;;;;;;5071554;28;20411;-46
2023/09/02 06:04:15;;;;;;;227.27;92.00;;;;;;;;;;5071847;28;20921;-46
2023/09/02 06:06:42;;;;;;;227.37;93.30;;;;;;;;;;5071114;28;20401;-46
2023/09/02 06:09:10;;;;;;;227.97;95.37;;;;;;;;;;5071947;28;20493;-46
2023/09/02 06:11:36;;;;;;;227.27;94.13;;;;;;;;;;5071622;28;20901;-46
2023/09/02 06:14:02;;;;;;;226.63;94.33;;;;;;;;;;5071655;28;20422;-46
2023/09/02 06:16:28;;;;;;;228.50;96.17;;;;;;;;;;5071713;28;20478;-46
2023/09/02 06:18:54;;;;;;;223.90;91.67;;;;;;;;;;5071755;28;20447;-46
2023/09/02 06:21:20;;;;;;;226.67;91.57;;;;;;;;;;5071571;28;20403;-46
2023/09/02 06:23:46;;;;;;;225.17;91.53;;;;;;;;;;5071463;28;20506;-46
2023/09/02 06:26:12;;;;;;;228.17;95.67;;;;;;;;;;5071674;28;20748;-47
2023/09/02 06:28:39;;;;;;;227.03;95.03;;;;;;;;;;5071116;28;20492;-47
2023/09/02 06:31:06;;;;;;;228.53;97.30;;;;;;;;;;5071601;28;20402;-45
2023/09/02 06:33:32;;;;;;;226.93;95.53;;;;;;;;;;5071543;28;20830;-46
2023/09/02 06:35:58;;;;;;;228.87;97.70;;;;;;;;;;5071479;28;20414;-46
2023/09/02 06:38:24;;;;;;;230.43;98.13;;;;;;;;;;5071408;28;20446;-45
2023/09/02 06:40:50;;;;;;;225.87;92.57;;;;;;;;;;5071764;28;20451;-46
2023/09/02 06:43:16;;;;;;;227.13;94.43;;;;;;;;;;5071578;28;20436;-46
2023/09/02 06:45:42;;;;;;;228.07;96.73;;;;;;;;;;5071310;28;20879;-46
2023/09/02 06:48:08;;;;;;;226.67;93.77;;;;;;;;;;5071431;28;20980;-46
2023/09/02 06:50:34;;;;;;;225.47;92.67;;;;;;;;;;5071129;28;20431;-46
2023/09/02 06:53:00;;;;;;;226.40;95.73;;;;;;;;;;5071118;28;20439;-46
2023/09/02 06:55:26;;;;;;;226.17;90.87;;;;;;;;;;5062708;28;20423;-46
2023/09/02 06:57:52;;;;;;;225.27;90.57;;;;;;;;;;5051528;28;20415;-46
2023/09/02 07:00:18;;;;;;;228.73;93.67;;;;;;;;;;5051059;28;20516;-46
2023/09/02 07:02:44;;;;;;;227.17;93.10;;;;;;;;;;5051261;28;20915;-46
2023/09/02 07:05:11;;;;;;;227.90;92.97;;;;;;;;;;5051365;28;20447;-45
2023/09/02 07:07:37;;;;;;;227.53;89.00;;;;;;;;;;5051208;28;20488;-46
2023/09/02 07:10:04;;;;;;;225.57;89.57;;;;;;;;;;5050870;28;20470;-46
2023/09/02 07:12:30;;;;;;;230.60;93.63;;;;;;;;;;5051180;28;20408;-47
2023/09/02 07:14:56;;;;;;;231.00;94.90;;;;;;;;;;5051099;28;20458;-45
2023/09/02 07:17:22;;;;;;;227.23;91.43;;;;;;;;;;5052376;28;20747;-46
2023/09/02 07:19:48;;;;;;;240.00;100.47;;;;;;;;;;5054629;28;20797;-46
2023/09/02 07:22:14;;;;;;;230.93;95.33;;;;;;;;;;5054865;28;20401;-46
2023/09/02 07:24:40;;;;;;;235.40;94.53;;;;;;;;;;5054734;28;20456;-45
2023/09/02 07:27:06;;;;;;;226.27;91.23;;;;;;;;;;5073163;28;20427;-46
2023/09/02 07:29:32;;;;;;;230.43;95.97;;;;;;;;;;5074675;28;20499;-46
2023/09/02 07:31:58;;;;;;;226.17;90.50;;;;;;;;;;5079077;28;20408;-46
2023/09/02 07:34:23;;;;;;;228.27;90.93;;;;;;;;;;5074213;28;20577;-46
2023/09/02 07:36:50;;;;;;;225.80;88.07;;;;;;;;;;5074220;28;20414;-46
2023/09/02 07:39:16;;;;;;;226.97;89.40;;;;;;;;;;5074156;28;20475;-47
2023/09/02 07:41:42;;;;;;;228.50;92.80;;;;;;;;;;5074135;28;20430;-46
2023/09/02 07:44:09;;;;;;;229.03;95.33;;;;;;;;;;5074010;28;20432;-46
2023/09/02 07:46:35;;;;;;;227.07;89.27;;;;;;;;;;5074220;28;20501;-46
2023/09/02 07:49:01;;;;;;;226.07;90.40;;;;;;;;;;5074053;28;20452;-46
2023/09/02 07:51:27;;;;;;;228.30;94.13;;;;;;;;;;5073760;28;20438;-46
2023/09/02 07:53:53;;;;;;;225.77;91.73;;;;;;;;;;5073779;28;20515;-46
2023/09/02 07:56:19;;;;;;;229.57;94.83;;;;;;;;;;5074013;28;20495;-46
2023/09/02 07:58:48;;;;;;;224.80;90.53;;;;;;;;;;5074078;28;20420;-46
2023/09/02 08:01:14;;;;;;;228.27;91.67;;;;;;;;;;5073725;28;20438;-45
2023/09/02 08:03:40;;;;;;;229.37;94.20;;;;;;;;;;5073982;28;20464;-45
2023/09/02 08:06:06;;;;;;;230.67;92.43;;;;;;;;;;5073713;28;20414;-45
2023/09/02 08:08:32;;;;;;;230.43;93.77;;;;;;;;;;5073265;28;20438;-46
2023/09/02 08:11:05;;;;;;;228.57;94.43;;;;;;;;;;5072706;28;20450;-45
2023/09/02 08:13:31;;;;;;;222.87;87.50;;;;;;;;;;5073535;28;21001;-46
2023/09/02 08:15:57;;;;;;;225.10;90.53;;;;;;;;;;5072499;28;20429;-45
2023/09/02 08:18:23;;;;;;;226.97;91.23;;;;;;;;;;5073660;28;20412;-45
2023/09/02 08:20:49;;;;;;;226.07;89.87;;;;;;;;;;5080353;28;21050;-45
2023/09/02 08:23:15;;;;;;;227.07;92.97;;;;;;;;;;5073486;28;20425;-46
2023/09/02 08:25:41;;;;;;;225.27;90.07;;;;;;;;;;5073427;28;20413;-45
2023/09/02 08:28:07;;;;;;;224.67;91.53;;;;;;;;;;5073529;28;20415;-46
2023/09/02 08:30:33;;;;;;;226.50;92.67;;;;;;;;;;5072359;28;20416;-46
2023/09/02 08:32:59;;;;;;;227.30;89.50;;;;;;;;;;5073217;28;20489;-47
2023/09/02 08:35:25;;;;;;;221.23;86.53;;;;;;;;;;5072944;28;20416;-46
2023/09/02 08:37:51;;;;;;;225.50;90.97;;;;;;;;;;5073546;28;20405;-46
2023/09/02 08:40:17;;;;;;;225.37;90.47;;;;;;;;;;5072897;28;20447;-45
2023/09/02 08:42:43;;;;;;;224.97;89.83;;;;;;;;;;5073084;28;20420;-45
2023/09/02 08:45:11;;;;;;;225.07;87.10;;;;;;;;;;5072927;28;20405;-45
2023/09/02 08:47:39;;;;;;;222.77;90.10;;;;;;;;;;5073013;28;20408;-45
2023/09/02 08:50:07;;;;;;;225.77;92.23;;;;;;;;;;5072666;28;20408;-46
2023/09/02 08:52:33;;;;;;;226.73;93.10;;;;;;;;;;5073964;28;20424;-46
2023/09/02 08:54:59;;;;;;;226.67;92.30;;;;;;;;;;5072789;28;20495;-47
2023/09/02 08:57:25;;;;;;;225.07;89.73;;;;;;;;;;5072779;28;20411;-48
2023/09/02 08:59:51;;;;;;;232.47;95.83;;;;;;;;;;5072690;28;20455;-45
2023/09/02 09:02:18;;;;;;;227.70;93.50;;;;;;;;;;5072701;28;20494;-46
2023/09/02 09:04:48;;;;;;;226.67;89.87;;;;;;;;;;5072412;28;20427;-48
2023/09/02 09:07:14;;;;;;;223.37;87.27;;;;;;;;;;5072663;28;20482;-46
2023/09/02 09:09:42;;;;;;;227.70;92.40;;;;;;;;;;5064312;28;20414;-47
2023/09/02 09:12:08;;;;;;;227.03;90.93;;;;;;;;;;5072367;28;20774;-46
2023/09/02 09:14:36;;;;;;;226.53;92.93;;;;;;;;;;5072592;28;20429;-45
2023/09/02 09:17:03;;;;;;;224.93;92.53;;;;;;;;;;5072718;28;20492;-46
2023/09/02 09:19:30;;;;;;;225.27;90.10;;;;;;;;;;5072362;28;20448;-47
2023/09/02 09:21:57;;;;;;;223.87;90.10;;;;;;;;;;5072372;28;20762;-46
2023/09/02 09:24:23;;;;;;;224.43;89.03;;;;;;;;;;5072303;28;20431;-45
2023/09/02 09:26:50;;;;;;;228.23;95.03;;;;;;;;;;5072429;28;20403;-46
2023/09/02 09:29:17;;;;;;;225.47;88.67;;;;;;;;;;5072379;28;20404;-47
2023/09/02 09:31:44;;;;;;;230.53;97.90;;;;;;;;;;5072269;28;20397;-46
2023/09/02 09:34:10;;;;;;;229.57;96.63;;;;;;;;;;5072195;28;20431;-46
2023/09/02 09:36:36;;;;;;;224.73;91.50;;;;;;;;;;5072288;28;20399;-46
2023/09/02 09:39:06;;;;;;;224.80;89.57;;;;;;;;;;5072100;28;21001;-46
2023/09/02 09:41:33;;;;;;;227.10;94.83;;;;;;;;;;5071982;28;20423;-46
2023/09/02 09:44:08;;;;;;;224.07;92.53;;;;;;;;;;5072074;28;20504;-46
2023/09/02 09:46:54;;;;;;;224.60;90.97;;;;;;;;;;5072199;28;20407;-46
2023/09/02 09:49:24;;;;;;;225.13;93.77;;;;;;;;;;5071955;28;20822;-46
2023/09/02 09:52:02;;;;;;;226.27;98.30;;;;;;;;;;5071740;28;20975;-46
2023/09/02 09:54:38;;;;;;;226.43;94.83;;;;;;;;;;5066650;28;20447;-47
2023/09/02 09:57:05;;;;;;;227.03;96.47;;;;;;;;;;5065454;28;20783;-46
2023/09/02 09:59:31;;;;;;;229.37;98.67;;;;;;;;;;5071297;28;20455;-46
2023/09/02 10:02:00;;;;;;;230.37;101.83;;;;;;;;;;5071297;28;20462;-46
2023/09/02 10:04:26;;;;;;;225.00;96.47;;;;;;;;;;5071761;28;20412;-46
2023/09/02 10:06:56;;;;;;;228.93;102.23;;;;;;;;;;5071857;28;20397;-47
2023/09/02 10:09:22;;;;;;;227.37;103.20;;;;;;;;;;5071738;28;20907;-46
2023/09/02 10:11:48;;;;;;;229.00;103.90;;;;;;;;;;5071109;28;20412;-47
2023/09/02 10:14:14;;;;;;;227.13;101.17;;;;;;;;;;5071980;28;20446;-46
2023/09/02 10:16:43;;;;;;;228.73;104.43;;;;;;;;;;5071499;28;20432;-47
2023/09/02 10:19:10;;;;;;;230.07;106.63;;;;;;;;;;5071702;28;20478;-46
2023/09/02 10:21:38;;;;;;;226.50;99.63;;;;;;;;;;5071565;28;20408;-46
2023/09/02 10:24:08;;;;;;;226.97;100.73;;;;;;;;;;5071599;28;20473;-47
2023/09/02 10:26:42;;;;;;;230.70;106.17;;;;;;;;;;5070560;28;20409;-46
2023/09/02 10:29:09;;;;;;;227.33;102.60;;;;;;;;;;5071534;28;20409;-47
2023/09/02 10:31:42;;;;;;;230.57;109.53;;;;;;;;;;5071392;28;20884;-47
2023/09/02 10:34:15;;;;;;;227.50;101.47;;;;;;;;;;5071493;28;20428;-46
2023/09/02 10:36:45;;;;;;;229.17;106.43;;;;;;;;;;5071566;28;20408;-46
2023/09/02 10:39:16;;;;;;;225.67;100.97;;;;;;;;;;5071334;28;20448;-46
2023/09/02 10:41:43;;;;;;;227.40;102.10;;;;;;;;;;5071252;28;20399;-46
2023/09/02 10:44:10;;;;;;;229.43;107.53;;;;;;;;;;5071322;28;21009;-46
2023/09/02 10:46:38;;;;;;;229.17;107.70;;;;;;;;;;5071469;28;20400;-46
2023/09/02 10:49:04;;;;;;;225.50;102.90;;;;;;;;;;5071167;28;20497;-46
2023/09/02 10:51:30;;;;;;;225.67;104.27;;;;;;;;;;5074474;28;20459;-46
2023/09/02 10:53:57;;;;;;;226.87;104.47;;;;;;;;;;5094967;28;20415;-46
2023/09/02 10:56:33;;;;;;;231.53;112.57;;;;;;;;;;5095559;28;20478;-46
2023/09/02 10:59:02;;;;;;;230.30;108.40;;;;;;;;;;5095844;28;20553;-45
2023/09/02 11:01:47;;;;;;;228.13;107.10;;;;;;;;;;5095288;28;20403;-46
2023/09/02 11:04:13;;;;;;;229.50;110.67;;;;;;;;;;5075689;28;20439;-47
2023/09/02 11:06:58;;;;;;;227.50;106.70;;;;;;;;;;5074991;28;20407;-46
2023/09/02 11:09:42;;;;;;;228.87;111.43;;;;;;;;;;5075082;28;20400;-46
2023/09/02 11:12:09;;;;;;;233.27;115.67;;;;;;;;;;5075024;28;20399;-46
2023/09/02 11:14:35;;;;;;;231.60;117.50;;;;;;;;;;5074884;28;20428;-46
2023/09/02 11:17:20;;;;;;;229.13;111.67;;;;;;;;;;5074628;28;20419;-46
2023/09/02 11:19:53;;;;;;;232.67;113.47;;;;;;;;;;5074638;28;20831;-46
2023/09/02 11:22:38;;;;;;;231.67;112.57;;;;;;;;;;5074896;28;20880;-46
2023/09/02 11:25:04;;;;;;;229.27;112.47;;;;;;;;;;5074754;28;20396;-47
2023/09/02 11:27:46;;;;;;;231.77;111.83;;;;;;;;;;5074560;28;20542;-46
2023/09/02 11:30:12;;;;;;;232.83;114.53;;;;;;;;;;5074428;28;20422;-46
2023/09/02 11:32:44;;;;;;;230.23;109.23;;;;;;;;;;5074620;28;20446;-46
2023/09/02 11:35:15;;;;;;;231.67;112.20;;;;;;;;;;5074473;28;20397;-46
2023/09/02 11:37:41;;;;;;;233.63;115.77;;;;;;;;;;5074577;28;20461;-46
2023/09/02 11:40:17;;;;;;;232.97;113.77;;;;;;;;;;5074142;28;20490;-47
2023/09/02 11:42:52;;;;;;;234.67;115.40;;;;;;;;;;5074472;28;20399;-46
2023/09/02 11:45:19;;;;;;;231.67;112.63;;;;;;;;;;5074345;28;20396;-46
2023/09/02 11:47:46;;;;;;;230.07;112.57;;;;;;;;;;5074415;28;20873;-45
2023/09/02 11:50:15;;;;;;;235.47;115.23;;;;;;;;;;5074078;28;20461;-47
2023/09/02 11:52:42;;;;;;;229.77;109.77;;;;;;;;;;5087577;28;20407;-46
2023/09/02 11:55:12;;;;;;;232.43;112.53;;;;;;;;;;5094571;28;20427;-47
2023/09/02 11:57:38;;;;;;;229.10;107.27;;;;;;;;;;5094656;28;20411;-45
2023/09/02 12:00:06;;;;;;;229.27;106.30;;;;;;;;;;5094152;28;21035;-46
2023/09/02 12:02:31;;;;;;;230.57;109.73;;;;;;;;;;5094364;28;20399;-46
2023/09/02 12:04:57;;;;;;;230.13;105.03;;;;;;;;;;5092889;28;20487;-45
2023/09/02 12:07:23;;;;;;;231.63;109.90;;;;;;;;;;5094307;28;20407;-45
2023/09/02 12:09:51;;;;;;;237.40;116.30;;;;;;;;;;5094008;28;20461;-46
2023/09/02 12:12:17;;;;;;;228.97;106.77;;;;;;;;;;5094237;28;20842;-46
2023/09/02 12:14:43;;;;;;;229.03;106.90;;;;;;;;;;5093877;28;20430;-45
2023/09/02 12:17:09;;;;;;;230.57;108.87;;;;;;;;;;5094214;28;20427;-46
2023/09/02 12:19:35;;;;;;;232.13;110.33;;;;;;;;;;5093911;28;20993;-46
2023/09/02 12:22:01;;;;;;;231.47;113.40;;;;;;;;;;5093957;28;20432;-47
2023/09/02 12:24:29;;;;;;;233.13;114.10;;;;;;;;;;5093794;28;20430;-47
2023/09/02 12:26:55;;;;;;;229.10;106.53;;;;;;;;;;5093951;28;20396;-46
2023/09/02 12:29:25;;;;;;;229.20;104.73;;;;;;;;;;5093886;28;20403;-46
2023/09/02 12:31:53;;;;;;;232.37;112.10;;;;;;;;;;5093652;28;20399;-46
2023/09/02 12:34:19;;;;;;;232.93;112.70;;;;;;;;;;5093617;28;20439;-46
2023/09/02 12:36:45;;;;;;;233.57;115.17;;;;;;;;;;5093736;28;20410;-46
2023/09/02 12:39:22;;;;;;;229.53;109.77;;;;;;;;;;5093657;28;20457;-46
2023/09/02 12:41:48;;;;;;;230.17;109.03;;;;;;;;;;5093650;28;20790;-46
2023/09/02 12:44:16;;;;;;;229.50;107.47;;;;;;;;;;5093450;28;20502;-46
2023/09/02 12:46:42;;;;;;;234.77;115.97;;;;;;;;;;5093462;28;20770;-46
2023/09/02 12:49:09;;;;;;;229.77;106.10;;;;;;;;;;5093532;28;20476;-46
2023/09/02 12:51:39;;;;;;;231.10;109.13;;;;;;;;;;5089029;28;20425;-46
2023/09/02 12:54:11;;;;;;;228.73;105.67;;;;;;;;;;5073092;28;20448;-47
2023/09/02 12:56:37;;;;;;;238.43;113.67;;;;;;;;;;5053857;28;20929;-46
2023/09/02 12:59:04;;;;;;;233.97;114.30;;;;;;;;;;5062039;28;20509;-46
2023/09/02 13:01:30;;;;;;;228.03;102.73;;;;;;;;;;5074127;28;20401;-46
2023/09/02 13:03:57;;;;;;;231.77;109.37;;;;;;;;;;5072800;28;20460;-46
2023/09/02 13:06:24;;;;;;;233.10;109.17;;;;;;;;;;5072873;28;20429;-46
2023/09/02 13:08:50;;;;;;;229.43;107.63;;;;;;;;;;5072867;28;20824;-46
2023/09/02 13:11:18;;;;;;;232.70;112.90;;;;;;;;;;5072387;28;20393;-47
2023/09/02 13:13:44;;;;;;;232.63;110.50;;;;;;;;;;5072375;28;20848;-45
2023/09/02 13:16:10;;;;;;;234.63;114.23;;;;;;;;;;5072577;28;20432;-46
2023/09/02 13:18:36;;;;;;;229.17;104.87;;;;;;;;;;5072818;28;20958;-46
2023/09/02 13:21:02;;;;;;;230.87;107.57;;;;;;;;;;5072270;28;20967;-46
2023/09/02 13:23:31;;;;;;;229.60;106.90;;;;;;;;;;5072452;28;20440;-47
2023/09/02 13:25:57;;;;;;;228.23;108.10;;;;;;;;;;5072620;28;20400;-46
2023/09/02 13:28:27;;;;;;;230.67;107.67;;;;;;;;;;5072833;28;20415;-47
2023/09/02 13:30:53;;;;;;;235.53;116.23;;;;;;;;;;5072320;28;20416;-46
2023/09/02 13:33:18;;;;;;;231.53;114.27;;;;;;;;;;5072312;28;20463;-46
2023/09/02 13:35:44;;;;;;;234.07;113.13;;;;;;;;;;5072057;28;20420;-47
2023/09/02 13:38:11;;;;;;;231.60;110.90;;;;;;;;;;5072722;28;20438;-46
2023/09/02 13:40:37;;;;;;;232.47;113.70;;;;;;;;;;5071905;28;20459;-46
2023/09/02 13:43:04;;;;;;;233.37;116.13;;;;;;;;;;5072043;28;20421;-46
2023/09/02 13:45:31;;;;;;;233.97;115.73;;;;;;;;;;5072140;28;20483;-46
2023/09/02 13:47:57;;;;;;;235.97;120.23;;;;;;;;;;5072208;28;20401;-46
2023/09/02 13:50:23;;;;;;;231.67;113.17;;;;;;;;;;5072160;28;20404;-46
2023/09/02 13:52:50;;;;;;;238.33;124.30;;;;;;;;;;5086264;28;20424;-45
2023/09/02 13:55:20;;;;;;;233.37;117.50;;;;;;;;;;5092046;28;20883;-46
2023/09/02 13:57:46;;;;;;;232.07;116.23;;;;;;;;;;5092447;28;20399;-45